Time;durP1;ratioP1;P1;durP2;ratioP2;P2;SDS_P1;SDS_P2;PMS_P1;PMS_P2;Temp;Humidity;BMP_temperature;BMP_pressure;BME280_temperature;BME280_humidity;BME280_pressure;Samples;Min_cycle;Max_cycle;Signal;HPM_P1;HPM_P2
2022/10/25 00:00:04;;;;;;;;;;;;;;;16.48;69.50;99352.81;5114502;28;19920;-60
2022/10/25 00:02:33;;;;;;;;;;;;;;;16.45;69.74;99347.78;5114923;28;19965;-58
2022/10/25 00:05:04;;;;;;;;;;;;;;;16.43;69.69;99349.75;5114532;28;19931;-60
2022/10/25 00:07:30;;;;;;;;;;;;;;;16.42;69.58;99342.75;5114733;28;19971;-59
2022/10/25 00:09:56;;;;;;;;;;;;;;;16.41;69.72;99346.41;5114169;28;20358;-61
2022/10/25 00:12:23;;;;;;;;;;;;;;;16.40;69.93;99350.00;5114563;28;19981;-61
2022/10/25 00:14:49;;;;;;;;;;;;;;;16.38;69.97;99342.16;5114399;28;19962;-61
2022/10/25 00:17:16;;;;;;;;;;;;;;;16.40;69.94;99352.66;5114414;28;19966;-59
2022/10/25 00:19:42;;;;;;;;;;;;;;;16.40;70.12;99350.00;5113918;28;19989;-58
2022/10/25 00:22:09;;;;;;;;;;;;;;;16.38;69.56;99352.78;5114277;28;19982;-62
2022/10/25 00:24:35;;;;;;;;;;;;;;;16.40;69.95;99360.63;5114027;28;19973;-60
2022/10/25 00:27:02;;;;;;;;;;;;;;;16.38;69.75;99358.09;5114359;28;20371;-59
2022/10/25 00:29:28;;;;;;;;;;;;;;;16.40;69.89;99344.69;5113944;28;19965;-60
2022/10/25 00:31:55;;;;;;;;;;;;;;;16.38;69.94;99354.63;5114073;28;19920;-63
2022/10/25 00:34:21;;;;;;;;;;;;;;;16.39;70.16;99354.50;5114077;28;19919;-61
2022/10/25 00:36:48;;;;;;;;;;;;;;;16.40;70.16;99355.31;5114148;28;19924;-60
2022/10/25 00:39:14;;;;;;;;;;;;;;;16.41;70.21;99357.03;5113576;28;19970;-59
2022/10/25 00:41:41;;;;;;;;;;;;;;;16.41;70.33;99363.16;5113970;28;19920;-59
2022/10/25 00:44:26;;;;;;;;;;;;;;;16.43;70.48;99355.06;5113869;28;20424;-62
2022/10/25 00:46:52;;;;;;;;;;;;;;;16.44;70.43;99362.03;5113633;28;19920;-60
2022/10/25 00:49:20;;;;;;;;;;;;;;;16.45;70.21;99355.75;5113340;28;19919;-60
2022/10/25 00:51:50;;;;;;;;;;;;;;;16.47;70.50;99360.94;5113573;28;19977;-60
2022/10/25 00:54:19;;;;;;;;;;;;;;;16.48;70.37;99360.78;5113792;28;19927;-57
2022/10/25 00:56:47;;;;;;;;;;;;;;;16.49;70.34;99370.44;5113386;28;20433;-58
2022/10/25 00:59:15;;;;;;;;;;;;;;;16.51;70.66;99379.13;5112060;28;20383;-58
2022/10/25 01:01:42;;;;;;;;;;;;;;;16.53;70.60;99368.38;5113480;28;19920;-60
2022/10/25 01:04:10;;;;;;;;;;;;;;;16.54;70.53;99362.06;5113183;28;19926;-60
2022/10/25 01:06:38;;;;;;;;;;;;;;;16.57;70.49;99374.25;5113308;28;20432;-60
2022/10/25 01:09:05;;;;;;;;;;;;;;;16.57;70.48;99366.28;5113098;28;19972;-60
2022/10/25 01:11:34;;;;;;;;;;;;;;;16.57;70.49;99369.78;5113814;28;19927;-60
2022/10/25 01:14:01;;;;;;;;;;;;;;;16.58;70.51;99362.63;5113142;28;19924;-58
2022/10/25 01:16:38;;;;;;;;;;;;;;;16.57;70.43;99371.59;5113027;28;19972;-60
2022/10/25 01:19:13;;;;;;;;;;;;;;;16.58;70.51;99375.91;5113307;28;19967;-61
2022/10/25 01:21:46;;;;;;;;;;;;;;;16.56;70.46;99372.56;5113265;28;20351;-56
2022/10/25 01:24:36;;;;;;;;;;;;;;;16.56;70.62;99375.22;5112963;28;19924;-59
2022/10/25 01:27:11;;;;;;;;;;;;;;;16.53;70.62;99371.84;5104940;28;19923;-63
2022/10/25 01:29:38;;;;;;;;;;;;;;;16.53;70.66;99369.19;5112690;28;19928;-58
2022/10/25 01:32:10;;;;;;;;;;;;;;;16.52;70.69;99370.16;5112937;28;19919;-60
2022/10/25 01:34:43;;;;;;;;;;;;;;;16.53;70.79;99371.03;5113133;28;19920;-61
2022/10/25 01:37:13;;;;;;;;;;;;;;;16.53;70.76;99368.38;5112764;28;19973;-59
2022/10/25 01:39:42;;;;;;;;;;;;;;;16.52;70.75;99367.50;5112294;28;19981;-60
2022/10/25 01:42:27;;;;;;;;;;;;;;;16.52;70.74;99372.81;5112282;28;19970;-62
2022/10/25 01:45:02;;;;;;;;;;;;;;;16.52;70.92;99375.47;5112610;28;19923;-62
2022/10/25 01:47:35;;;;;;;;;;;;;;;16.53;70.76;99379.00;5112756;28;19927;-63
2022/10/25 01:50:06;;;;;;;;;;;;;;;16.51;70.75;99379.13;5111386;28;19966;-57
2022/10/25 01:52:32;;;;;;;;;;;;;;;16.51;70.85;99381.78;5111487;28;19955;-58
2022/10/25 01:54:59;;;;;;;;;;;;;;;16.52;71.04;99382.63;5112592;28;19923;-62
2022/10/25 01:57:34;;;;;;;;;;;;;;;16.52;70.91;99386.13;5111320;28;19969;-61
2022/10/25 02:00:06;;;;;;;;;;;;;;;16.52;70.83;99386.13;5112171;28;19931;-61
2022/10/25 02:02:39;;;;;;;;;;;;;;;16.52;70.83;99378.16;5112427;28;20011;-58
2022/10/25 02:05:15;;;;;;;;;;;;;;;16.52;70.85;99380.81;5112765;28;19920;-59
2022/10/25 02:07:43;;;;;;;;;;;;;;;16.52;71.02;99385.28;5112242;28;19920;-62
2022/10/25 02:10:16;;;;;;;;;;;;;;;16.54;71.06;99383.31;5112297;28;19928;-59
2022/10/25 02:12:51;;;;;;;;;;;;;;;16.52;70.84;99383.47;5112212;28;19919;-59
2022/10/25 02:15:38;;;;;;;;;;;;;;;16.52;70.98;99391.44;5112053;28;19970;-61
2022/10/25 02:18:08;;;;;;;;;;;;;;;16.52;70.58;99388.78;5111828;28;20019;-61
2022/10/25 02:20:34;;;;;;;;;;;;;;;16.52;70.86;99385.28;5110785;28;19919;-57
2022/10/25 02:23:02;;;;;;;;;;;;;;;16.52;71.02;99390.59;5112132;28;19969;-60
2022/10/25 02:25:31;;;;;;;;;;;;;;;16.53;71.05;99386.97;5110886;28;19923;-61
2022/10/25 02:28:00;;;;;;;;;;;;;;;16.53;71.20;99392.28;5110755;28;19965;-62
2022/10/25 02:30:27;;;;;;;;;;;;;;;16.51;71.12;99389.75;5111949;28;19978;-60
2022/10/25 02:32:54;;;;;;;;;;;;;;;16.51;70.96;99392.41;5112410;28;19924;-60
2022/10/25 02:35:20;;;;;;;;;;;;;;;16.51;71.19;99389.75;5111923;28;19973;-60
2022/10/25 02:37:47;;;;;;;;;;;;;;;16.52;71.38;99394.09;5111898;28;19945;-55
2022/10/25 02:40:14;;;;;;;;;;;;;;;16.52;71.29;99394.09;5111607;28;19927;-62
2022/10/25 02:42:40;;;;;;;;;;;;;;;16.53;71.15;99393.09;5112104;28;20021;-60
2022/10/25 02:45:07;;;;;;;;;;;;;;;16.52;71.01;99394.09;5112240;28;19923;-61
2022/10/25 02:47:34;;;;;;;;;;;;;;;16.54;71.22;99400.13;5111818;28;19963;-59
2022/10/25 02:50:00;;;;;;;;;;;;;;;16.54;71.10;99400.13;5111765;28;19955;-61
2022/10/25 02:52:27;;;;;;;;;;;;;;;16.53;71.25;99406.38;5112370;28;20006;-60
2022/10/25 02:54:53;;;;;;;;;;;;;;;16.54;71.35;99401.94;5115920;28;19967;-60
2022/10/25 02:57:19;;;;;;;;;;;;;;;16.53;71.26;99401.06;5115699;28;19974;-59
2022/10/25 02:59:46;;;;;;;;;;;;;;;16.53;70.99;99406.38;5115752;28;20023;-60
2022/10/25 03:02:12;;;;;;;;;;;;;;;16.54;71.14;99402.78;5115820;28;20034;-61
2022/10/25 03:04:39;;;;;;;;;;;;;;;16.54;71.40;99408.09;5115843;28;19959;-61
2022/10/25 03:07:05;;;;;;;;;;;;;;;16.56;71.47;99407.09;5114348;28;19970;-59
2022/10/25 03:09:32;;;;;;;;;;;;;;;16.56;71.42;99413.25;5115498;28;19919;-58
2022/10/25 03:11:58;;;;;;;;;;;;;;;16.57;71.54;99414.94;5115711;28;19980;-61
2022/10/25 03:14:25;;;;;;;;;;;;;;;16.58;71.54;99410.47;5115796;28;19963;-60
2022/10/25 03:16:51;;;;;;;;;;;;;;;16.58;71.35;99416.63;5115383;28;19966;-60
2022/10/25 03:19:17;;;;;;;;;;;;;;;16.59;71.60;99414.81;5115171;28;20086;-59
2022/10/25 03:21:44;;;;;;;;;;;;;;;16.59;71.61;99425.44;5115348;28;19967;-59
2022/10/25 03:24:10;;;;;;;;;;;;;;;16.59;71.45;99418.28;5115690;28;19920;-59
2022/10/25 03:26:37;;;;;;;;;;;;;;;16.60;71.28;99429.78;5115686;28;19927;-58
2022/10/25 03:29:03;;;;;;;;;;;;;;;16.60;71.39;99430.59;5115142;28;19955;-61
2022/10/25 03:31:30;;;;;;;;;;;;;;;16.60;71.27;99429.78;5115345;28;19927;-58
2022/10/25 03:33:56;;;;;;;;;;;;;;;16.60;71.34;99435.09;5113930;28;19924;-59
2022/10/25 03:36:23;;;;;;;;;;;;;;;16.59;70.61;99438.72;5114997;28;20506;-60
2022/10/25 03:38:49;;;;;;;;;;;;;;;16.60;71.03;99445.72;5115076;28;19920;-60
2022/10/25 03:41:16;;;;;;;;;;;;;;;16.58;70.98;99439.69;5115000;28;20368;-57
2022/10/25 03:43:42;;;;;;;;;;;;;;;16.59;71.21;99439.56;5115111;28;19919;-56
2022/10/25 03:46:09;;;;;;;;;;;;;;;16.59;71.02;99444.03;5114895;28;19970;-55
2022/10/25 03:48:35;;;;;;;;;;;;;;;16.59;71.02;99447.53;5114697;28;19967;-55
2022/10/25 03:51:01;;;;;;;;;;;;;;;16.61;71.10;99450.06;5114971;28;19997;-57
2022/10/25 03:53:28;;;;;;;;;;;;;;;16.59;70.96;99450.19;5114987;28;19977;-58
2022/10/25 03:55:54;;;;;;;;;;;;;;;16.60;70.93;99456.34;5114820;28;19919;-57
2022/10/25 03:58:21;;;;;;;;;;;;;;;16.61;70.98;99458.03;5114625;28;19924;-59
2022/10/25 04:00:47;;;;;;;;;;;;;;;16.62;71.18;99459.69;5114618;28;19986;-63
2022/10/25 04:03:14;;;;;;;;;;;;;;;16.63;71.29;99461.41;5113964;28;19920;-59
2022/10/25 04:05:40;;;;;;;;;;;;;;;16.64;71.12;99460.41;5114796;28;19923;-60
2022/10/25 04:08:07;;;;;;;;;;;;;;;16.65;71.19;99462.09;5114574;28;19958;-58
2022/10/25 04:10:34;;;;;;;;;;;;;;;16.65;71.03;99472.72;5114474;28;19994;-58
2022/10/25 04:13:00;;;;;;;;;;;;;;;16.65;71.03;99470.91;5114430;28;19970;-59
2022/10/25 04:15:26;;;;;;;;;;;;;;;16.65;71.01;99470.91;5114411;28;19982;-58
2022/10/25 04:17:53;;;;;;;;;;;;;;;16.66;71.01;99469.09;5113018;28;19920;-58
2022/10/25 04:20:20;;;;;;;;;;;;;;;16.67;70.96;99478.72;5114350;28;19974;-58
2022/10/25 04:22:53;;;;;;;;;;;;;;;16.66;70.85;99471.75;5114246;28;19926;-61
2022/10/25 04:25:20;;;;;;;;;;;;;;;16.66;70.81;99472.59;5113351;28;19919;-60
2022/10/25 04:27:47;;;;;;;;;;;;;;;16.66;70.91;99477.06;5114353;28;19963;-59
2022/10/25 04:30:14;;;;;;;;;;;;;;;16.67;71.03;99479.59;5114158;28;19920;-60
2022/10/25 04:32:40;;;;;;;;;;;;;;;16.67;70.42;99486.72;5113992;28;20012;-60
2022/10/25 04:35:07;;;;;;;;;;;;;;;16.67;70.82;99473.41;5113980;28;20404;-62
2022/10/25 04:37:33;;;;;;;;;;;;;;;16.68;70.81;99477.78;5114015;28;20379;-60
2022/10/25 04:40:00;;;;;;;;;;;;;;;16.69;70.85;99482.13;5113560;28;19977;-60
2022/10/25 04:42:26;;;;;;;;;;;;;;;16.70;70.86;99482.97;5113781;28;19950;-54
2022/10/25 04:44:52;;;;;;;;;;;;;;;16.70;70.90;99481.13;5113681;28;20011;-62
2022/10/25 04:47:19;;;;;;;;;;;;;;;16.70;70.78;99486.44;5113890;28;20363;-60
2022/10/25 04:49:45;;;;;;;;;;;;;;;16.71;70.56;99484.66;5113491;27;20376;-58
2022/10/25 04:52:12;;;;;;;;;;;;;;;16.70;70.73;99483.78;5113853;28;19973;-61
2022/10/25 04:54:38;;;;;;;;;;;;;;;16.70;70.62;99493.59;5113719;28;19973;-58
2022/10/25 04:57:06;;;;;;;;;;;;;;;16.71;70.84;99489.97;5113502;28;19923;-62
2022/10/25 04:59:32;;;;;;;;;;;;;;;16.70;70.52;99489.09;5113112;28;19950;-59
2022/10/25 05:01:58;;;;;;;;;;;;;;;16.70;70.60;99489.09;5113327;28;20429;-59
2022/10/25 05:04:25;;;;;;;;;;;;;;;16.71;70.57;99490.78;5113418;28;19923;-63
2022/10/25 05:06:51;;;;;;;;;;;;;;;16.72;70.59;99491.63;5113412;28;19920;-60
2022/10/25 05:09:18;;;;;;;;;;;;;;;16.72;70.68;99496.94;5113238;28;19920;-61
2022/10/25 05:11:44;;;;;;;;;;;;;;;16.72;70.46;99503.13;5113289;28;20283;-59
2022/10/25 05:14:11;;;;;;;;;;;;;;;16.73;70.68;99509.25;5113227;28;20005;-57
2022/10/25 05:16:38;;;;;;;;;;;;;;;16.73;70.72;99502.13;5112579;28;19969;-58
2022/10/25 05:19:04;;;;;;;;;;;;;;;16.74;70.65;99500.34;5113201;28;19919;-59
2022/10/25 05:21:31;;;;;;;;;;;;;;;16.74;70.58;99503.81;5112998;28;20328;-62
2022/10/25 05:23:58;;;;;;;;;;;;;;;16.74;70.62;99506.47;5113070;28;19923;-62
2022/10/25 05:26:27;;;;;;;;;;;;;;;16.74;70.71;99509.13;5112899;28;19931;-66
2022/10/25 05:28:55;;;;;;;;;;;;;;;16.75;70.59;99508.16;5112646;28;19920;-60
2022/10/25 05:31:26;;;;;;;;;;;;;;;16.76;70.79;99507.19;5111940;28;19924;-58
2022/10/25 05:33:54;;;;;;;;;;;;;;;16.76;70.58;99519.63;5113155;28;19927;-59
2022/10/25 05:36:20;;;;;;;;;;;;;;;16.76;70.46;99517.81;5112858;28;20411;-56
2022/10/25 05:38:47;;;;;;;;;;;;;;;16.78;70.64;99525.63;5112243;28;20384;-59
2022/10/25 05:41:14;;;;;;;;;;;;;;;16.77;70.62;99516.00;5112690;28;19977;-59
2022/10/25 05:43:41;;;;;;;;;;;;;;;16.79;70.77;99524.69;5111721;28;19959;-58
2022/10/25 05:46:19;;;;;;;;;;;;;;;16.78;70.50;99529.16;5112955;28;19923;-58
2022/10/25 05:48:46;;;;;;;;;;;;;;;16.79;70.68;99527.34;5111334;28;19959;-57
2022/10/25 05:51:16;;;;;;;;;;;;;;;16.79;70.61;99530.81;5112493;28;19982;-62
2022/10/25 05:54:08;;;;;;;;;;;;;;;16.80;70.53;99540.50;5112298;28;20355;-60
2022/10/25 05:56:34;;;;;;;;;;;;;;;16.79;70.62;99530.81;5112790;28;19973;-58
2022/10/25 05:59:02;;;;;;;;;;;;;;;16.77;70.43;99538.09;5112323;28;19920;-58
2022/10/25 06:01:29;;;;;;;;;;;;;;;16.76;70.32;99547.06;5111283;28;19924;-60
2022/10/25 06:03:55;;;;;;;;;;;;;;;16.75;70.44;99544.53;5112221;28;19920;-59
2022/10/25 06:06:22;;;;;;;;;;;;;;;16.72;70.31;99539.47;5112323;28;20466;-57
2022/10/25 06:08:49;;;;;;;;;;;;;;;16.71;70.21;99543.94;5112024;28;19974;-61
2022/10/25 06:11:17;;;;;;;;;;;;;;;16.68;70.35;99539.72;5112514;28;19920;-56
2022/10/25 06:13:43;;;;;;;;;;;;;;;16.67;70.60;99547.81;5112262;28;19920;-55
2022/10/25 06:16:11;;;;;;;;;;;;;;;16.65;70.47;99549.78;5112204;28;20014;-57
2022/10/25 06:18:38;;;;;;;;;;;;;;;16.63;70.33;99552.56;5112009;28;20368;-59
2022/10/25 06:21:06;;;;;;;;;;;;;;;16.61;70.40;99549.22;5112267;28;19923;-60
2022/10/25 06:23:36;;;;;;;;;;;;;;;16.60;70.42;99555.50;5111694;28;19927;-57
2022/10/25 06:26:04;;;;;;;;;;;;;;;16.59;70.49;99567.09;5111829;28;19920;-56
2022/10/25 06:28:31;;;;;;;;;;;;;;;16.58;70.48;99560.09;5110568;28;19963;-61
2022/10/25 06:31:01;;;;;;;;;;;;;;;16.57;70.27;99573.53;5111595;28;19973;-58
2022/10/25 06:33:28;;;;;;;;;;;;;;;16.54;70.01;99578.13;5110935;28;19924;-57
2022/10/25 06:36:00;;;;;;;;;;;;;;;16.53;70.20;99572.94;5111943;28;19988;-56
2022/10/25 06:38:27;;;;;;;;;;;;;;;16.51;70.38;99573.06;5110630;28;19985;-57
2022/10/25 06:41:00;;;;;;;;;;;;;;;16.51;70.15;99585.50;5112049;28;19973;-61
2022/10/25 06:43:27;;;;;;;;;;;;;;;16.49;70.25;99582.16;5111881;28;20358;-58
2022/10/25 06:45:53;;;;;;;;;;;;;;;16.49;70.50;99590.94;5112102;28;20371;-60
2022/10/25 06:48:20;;;;;;;;;;;;;;;16.49;70.26;99593.59;5111635;28;19923;-61
2022/10/25 06:50:47;;;;;;;;;;;;;;;16.50;70.12;99589.16;5111851;28;20351;-61
2022/10/25 06:53:17;;;;;;;;;;;;;;;16.49;70.43;99606.06;5111936;28;19920;-60
2022/10/25 06:55:45;;;;;;;;;;;;;;;16.50;70.33;99600.63;5111947;28;19927;-60
2022/10/25 06:58:12;;;;;;;;;;;;;;;16.52;70.46;99611.13;5110217;28;20415;-60
2022/10/25 07:00:38;;;;;;;;;;;;;;;16.52;70.45;99608.47;5111746;28;19972;-59
2022/10/25 07:03:05;;;;;;;;;;;;;;;16.52;70.18;99622.59;5111856;28;20329;-60
2022/10/25 07:05:31;;;;;;;;;;;;;;;16.54;70.48;99631.28;5111889;28;19924;-62
2022/10/25 07:07:58;;;;;;;;;;;;;;;16.56;70.33;99627.66;5111694;28;19924;-64
2022/10/25 07:10:24;;;;;;;;;;;;;;;16.57;70.61;99634.63;5111521;28;20367;-60
2022/10/25 07:12:51;;;;;;;;;;;;;;;16.59;70.74;99643.34;5111705;28;19972;-61
2022/10/25 07:15:17;;;;;;;;;;;;;;;16.61;70.63;99642.22;5111939;28;20021;-61
2022/10/25 07:17:45;;;;;;;;;;;;;;;16.61;70.11;99644.88;5111635;28;19923;-60
2022/10/25 07:20:12;;;;;;;;;;;;;;;16.63;70.18;99664.19;5111502;28;19981;-61
2022/10/25 07:22:38;;;;;;;;;;;;;;;16.64;70.22;99663.22;5111516;28;19961;-61
2022/10/25 07:25:05;;;;;;;;;;;;;;;16.66;70.16;99647.13;5111535;28;19959;-60
2022/10/25 07:27:32;;;;;;;;;;;;;;;16.67;70.30;99656.78;5111543;28;19919;-60
2022/10/25 07:29:58;;;;;;;;;;;;;;;16.68;70.31;99661.97;5110217;28;20363;-63
2022/10/25 07:32:25;;;;;;;;;;;;;;;16.70;70.13;99658.38;5111609;28;20010;-60
2022/10/25 07:34:51;;;;;;;;;;;;;;;16.70;70.27;99664.50;5111535;28;19919;-59
2022/10/25 07:37:18;;;;;;;;;;;;;;;16.71;70.29;99665.38;5111510;28;19919;-59
2022/10/25 07:39:44;;;;;;;;;;;;;;;16.72;70.20;99662.59;5113682;28;19985;-62
2022/10/25 07:42:11;;;;;;;;;;;;;;;16.73;70.32;99666.91;5115018;28;20410;-60
2022/10/25 07:44:37;;;;;;;;;;;;;;;16.74;70.25;99671.25;5115087;28;19955;-61
2022/10/25 07:47:04;;;;;;;;;;;;;;;16.74;70.27;99670.44;5115138;28;19923;-59
2022/10/25 07:49:30;;;;;;;;;;;;;;;16.74;70.10;99668.59;5114712;28;19966;-59
2022/10/25 07:51:57;;;;;;;;;;;;;;;16.74;70.05;99671.25;5114905;28;19946;-62
2022/10/25 07:54:23;;;;;;;;;;;;;;;16.75;69.99;99669.44;5114941;28;20412;-60
2022/10/25 07:56:49;;;;;;;;;;;;;;;16.76;70.18;99674.66;5114745;28;20012;-62
2022/10/25 07:59:16;;;;;;;;;;;;;;;16.76;70.14;99672.00;5114452;28;19920;-59
2022/10/25 08:01:42;;;;;;;;;;;;;;;16.78;69.97;99678.00;5114781;28;19920;-58
2022/10/25 08:04:09;;;;;;;;;;;;;;;16.79;70.08;99678.84;5114822;28;19919;-61
2022/10/25 08:06:35;;;;;;;;;;;;;;;16.79;69.84;99674.38;5114720;28;19928;-62
2022/10/25 08:09:02;;;;;;;;;;;;;;;16.79;70.12;99687.66;5114352;28;19919;-60
2022/10/25 08:11:45;;;;;;;;;;;;;;;16.82;69.94;99688.38;5114672;28;19924;-61
2022/10/25 08:14:12;;;;;;;;;;;;;;;16.80;70.04;99676.06;5114567;28;20025;-60
2022/10/25 08:16:38;;;;;;;;;;;;;;;16.84;69.96;99691.75;5114522;28;19926;-59
2022/10/25 08:19:05;;;;;;;;;;;;;;;16.85;70.38;99694.28;5113981;28;20592;-60
2022/10/25 08:21:31;;;;;;;;;;;;;;;16.86;69.83;99690.63;5114309;28;19981;-62
2022/10/25 08:23:58;;;;;;;;;;;;;;;16.88;69.80;99690.50;5114387;28;19919;-61
2022/10/25 08:26:25;;;;;;;;;;;;;;;16.90;70.28;99697.38;5114270;28;20426;-60
2022/10/25 08:28:52;;;;;;;;;;;;;;;16.93;70.21;99696.28;5114205;28;20341;-60
2022/10/25 08:31:18;;;;;;;;;;;;;;;16.95;70.24;99707.63;5114182;28;19964;-60
2022/10/25 08:33:45;;;;;;;;;;;;;;;16.97;70.37;99697.69;5114027;28;19928;-59
2022/10/25 08:36:12;;;;;;;;;;;;;;;17.00;70.13;99700.09;5114063;28;19924;-59
2022/10/25 08:38:38;;;;;;;;;;;;;;;17.02;70.13;99700.84;5113863;28;19927;-60
2022/10/25 08:41:05;;;;;;;;;;;;;;;17.04;69.82;99704.22;5114146;28;19920;-60
2022/10/25 08:43:38;;;;;;;;;;;;;;;17.04;70.03;99712.19;5113900;28;19931;-62
2022/10/25 08:46:09;;;;;;;;;;;;;;;17.04;70.02;99706.88;5114096;28;19947;-61
2022/10/25 08:48:38;;;;;;;;;;;;;;;17.05;70.22;99713.88;5112417;28;19920;-59
2022/10/25 08:51:25;;;;;;;;;;;;;;;17.05;69.03;99716.53;5113509;28;19972;-61
2022/10/25 08:53:53;;;;;;;;;;;;;;;17.06;69.47;99712.06;5112798;28;19919;-59
2022/10/25 08:56:25;;;;;;;;;;;;;;;17.04;69.77;99712.19;5113777;28;20354;-61
2022/10/25 08:58:59;;;;;;;;;;;;;;;17.05;69.50;99721.84;5112092;28;19939;-62
2022/10/25 09:01:35;;;;;;;;;;;;;;;17.05;69.88;99723.69;5112579;28;19920;-60
2022/10/25 09:04:02;;;;;;;;;;;;;;;17.06;70.12;99720.03;5112467;28;20377;-59
2022/10/25 09:06:34;;;;;;;;;;;;;;;17.06;70.14;99726.22;5095528;28;19994;-62
2022/10/25 09:09:15;;;;;;;;;;;;;;;17.08;69.89;99735.88;5113334;28;20383;-59
2022/10/25 09:11:56;;;;;;;;;;;;;;;17.10;70.05;99731.25;5112334;28;19984;-61
2022/10/25 09:14:29;;;;;;;;;;;;;;;17.11;69.73;99731.13;5113532;28;19972;-61
2022/10/25 09:17:03;;;;;;;;;;;;;;;17.13;69.89;99739.84;5113580;28;19973;-60
2022/10/25 09:19:34;;;;;;;;;;;;;;;17.15;69.80;99729.03;5111909;28;19944;-60
2022/10/25 09:22:03;;;;;;;;;;;;;;;17.16;70.01;99736.06;5113107;28;19977;-61
2022/10/25 09:24:32;;;;;;;;;;;;;;;17.19;70.30;99744.63;5112165;28;20345;-61
2022/10/25 09:27:06;;;;;;;;;;;;;;;17.24;70.26;99754.03;5113302;28;20433;-61
2022/10/25 09:29:35;;;;;;;;;;;;;;;17.30;70.39;99749.03;5112830;28;19919;-60
2022/10/25 09:32:06;;;;;;;;;;;;;;;17.34;69.82;99741.63;5113071;28;19965;-62
2022/10/25 09:34:33;;;;;;;;;;;;;;;17.40;70.06;99751.75;5112875;28;19994;-58
2022/10/25 09:37:12;;;;;;;;;;;;;;;17.47;70.34;99749.41;5112834;28;20279;-60
2022/10/25 09:39:48;;;;;;;;;;;;;;;17.53;70.04;99759.50;5111734;28;19924;-58
2022/10/25 09:42:24;;;;;;;;;;;;;;;17.60;70.29;99764.31;5111689;28;19988;-60
2022/10/25 09:44:53;;;;;;;;;;;;;;;17.66;69.76;99763.75;5111655;28;19919;-59
2022/10/25 09:47:24;;;;;;;;;;;;;;;17.70;68.70;99767.84;5111625;28;20360;-60
2022/10/25 09:49:57;;;;;;;;;;;;;;;17.74;68.47;99773.72;5112778;28;19977;-61
2022/10/25 09:52:33;;;;;;;;;;;;;;;17.75;69.01;99776.25;5112552;28;20355;-60
2022/10/25 09:55:18;;;;;;;;;;;;;;;17.76;69.02;99774.44;5112525;28;20038;-60
2022/10/25 09:57:45;;;;;;;;;;;;;;;17.77;69.28;99773.47;5112738;28;19924;-60
2022/10/25 10:00:13;;;;;;;;;;;;;;;17.78;69.28;99784.00;5111202;28;19930;-60
2022/10/25 10:02:40;;;;;;;;;;;;;;;17.79;69.51;99791.00;5111932;28;19920;-58
2022/10/25 10:05:16;;;;;;;;;;;;;;;17.81;69.45;99790.88;5112430;28;20358;-59
2022/10/25 10:07:47;;;;;;;;;;;;;;;17.82;69.22;99789.88;5111002;28;20441;-60
2022/10/25 10:10:16;;;;;;;;;;;;;;;17.82;68.67;99793.41;5111012;28;19923;-59
2022/10/25 10:12:56;;;;;;;;;;;;;;;17.82;68.65;99796.06;5112432;28;20022;-60
2022/10/25 10:15:38;;;;;;;;;;;;;;;17.82;68.71;99797.88;5112331;28;19920;-61
2022/10/25 10:18:24;;;;;;;;;;;;;;;17.82;68.80;99803.19;5110715;28;19919;-62
2022/10/25 10:21:11;;;;;;;;;;;;;;;17.81;68.70;99804.19;5111981;28;19966;-60
2022/10/25 10:23:41;;;;;;;;;;;;;;;17.81;68.70;99812.16;5112326;28;19974;-62
2022/10/25 10:26:10;;;;;;;;;;;;;;;17.81;68.88;99813.03;5112127;28;19962;-60
2022/10/25 10:28:37;;;;;;;;;;;;;;;17.82;68.51;99820.03;5111981;28;19920;-60
2022/10/25 10:31:05;;;;;;;;;;;;;;;17.84;68.74;99819.91;5111941;28;20371;-61
2022/10/25 10:33:32;;;;;;;;;;;;;;;17.86;69.24;99822.44;5110909;28;19927;-60
2022/10/25 10:36:18;;;;;;;;;;;;;;;17.87;67.95;99818.78;5110789;28;19919;-61
2022/10/25 10:38:45;;;;;;;;;;;;;;;17.89;68.41;99820.31;5111470;28;19919;-61
2022/10/25 10:41:22;;;;;;;;;;;;;;;17.94;68.36;99830.59;5111845;28;20137;-60
2022/10/25 10:43:49;;;;;;;;;;;;;;;17.98;68.99;99816.84;5110978;28;20060;-61
2022/10/25 10:46:18;;;;;;;;;;;;;;;18.02;67.87;99820.09;5112061;28;19962;-60
2022/10/25 10:48:51;;;;;;;;;;;;;;;18.06;68.35;99812.69;5110599;28;19923;-60
2022/10/25 10:51:19;;;;;;;;;;;;;;;18.14;68.71;99822.69;5112067;28;20375;-60
2022/10/25 10:54:13;;;;;;;;;;;;;;;18.31;69.72;99821.19;5111764;28;20374;-60
2022/10/25 10:56:40;;;;;;;;;;;;;;;18.58;70.56;99820.53;5112047;28;19974;-60
2022/10/25 10:59:22;;;;;;;;;;;;;;;18.89;69.91;99822.25;5111521;28;20383;-60
2022/10/25 11:01:49;;;;;;;;;;;;;;;19.29;71.50;99827.59;5111742;28;19969;-61
2022/10/25 11:04:16;;;;;;;;;;;;;;;19.65;71.79;99830.47;5111736;28;20368;-59
2022/10/25 11:06:43;;;;;;;;;;;;;;;19.97;71.09;99833.75;5111855;28;19919;-60
2022/10/25 11:09:21;;;;;;;;;;;;;;;20.23;69.81;99830.41;5111544;28;20310;-60
2022/10/25 11:12:04;;;;;;;;;;;;;;;20.35;66.85;99833.72;5111589;28;19973;-60
2022/10/25 11:14:31;;;;;;;;;;;;;;;20.37;66.83;99831.75;5113983;28;19923;-60
2022/10/25 11:16:57;;;;;;;;;;;;;;;20.30;66.02;99835.00;5115695;28;19963;-62
2022/10/25 11:19:38;;;;;;;;;;;;;;;20.16;65.02;99823.00;5114026;28;19919;-61
2022/10/25 11:22:15;;;;;;;;;;;;;;;19.99;63.87;99829.09;5115594;28;19973;-59
2022/10/25 11:24:41;;;;;;;;;;;;;;;19.82;64.22;99834.22;5115630;28;19957;-61
2022/10/25 11:27:26;;;;;;;;;;;;;;;19.66;65.37;99841.00;5115325;28;19923;-60
2022/10/25 11:30:07;;;;;;;;;;;;;;;19.53;65.45;99852.00;5115352;28;19923;-61
2022/10/25 11:32:39;;;;;;;;;;;;;;;19.48;66.35;99837.41;5115241;28;19919;-59
2022/10/25 11:35:09;;;;;;;;;;;;;;;19.59;69.03;99839.06;5115160;28;19920;-60
2022/10/25 11:37:48;;;;;;;;;;;;;;;19.87;70.19;99837.28;5115260;28;19923;-60
2022/10/25 11:40:16;;;;;;;;;;;;;;;20.37;68.84;99835.25;5115133;28;20291;-59
2022/10/25 11:42:49;;;;;;;;;;;;;;;21.00;71.67;99842.63;5115147;28;19953;-60
2022/10/25 11:45:22;;;;;;;;;;;;;;;21.64;70.73;99839.72;5114911;28;19926;-61
2022/10/25 11:47:48;;;;;;;;;;;;;;;22.25;71.38;99841.56;5115145;28;20425;-60
2022/10/25 11:50:26;;;;;;;;;;;;;;;22.74;66.91;99838.22;5114683;28;19939;-60
2022/10/25 11:53:04;;;;;;;;;;;;;;;23.25;66.14;99850.63;5115141;28;19977;-60
2022/10/25 11:55:39;;;;;;;;;;;;;;;23.59;63.66;99845.25;5114967;28;19927;-59
2022/10/25 11:58:05;;;;;;;;;;;;;;;23.74;62.73;99845.41;5113400;28;19942;-60
2022/10/25 12:00:33;;;;;;;;;;;;;;;23.73;60.55;99849.94;5114625;28;19919;-60
2022/10/25 12:03:06;;;;;;;;;;;;;;;23.60;59.06;99860.38;5113607;28;19920;-60
2022/10/25 12:05:50;;;;;;;;;;;;;;;23.37;58.29;99855.69;5114515;28;19920;-62
2022/10/25 12:08:23;;;;;;;;;;;;;;;23.16;62.33;99859.69;5114463;28;19963;-60
2022/10/25 12:10:55;;;;;;;;;;;;;;;23.11;63.01;99862.06;5113197;28;19970;-59
2022/10/25 12:13:37;;;;;;;;;;;;;;;23.20;62.92;99868.25;5114684;28;19931;-60
2022/10/25 12:16:08;;;;;;;;;;;;;;;23.39;61.45;99862.56;5114461;28;19926;-60
2022/10/25 12:18:36;;;;;;;;;;;;;;;23.71;63.27;99868.09;5113255;28;19924;-62
2022/10/25 12:21:04;;;;;;;;;;;;;;;24.04;62.88;99862.59;5114215;28;19920;-59
2022/10/25 12:23:42;;;;;;;;;;;;;;;24.42;65.13;99870.06;5114470;28;19927;-60
2022/10/25 12:26:15;;;;;;;;;;;;;;;24.81;65.80;99868.31;5113974;28;19968;-60
2022/10/25 12:28:46;;;;;;;;;;;;;;;25.14;64.54;99875.34;5114347;28;20344;-59
2022/10/25 12:31:19;;;;;;;;;;;;;;;25.38;62.45;99873.47;5114148;28;19928;-61
2022/10/25 12:34:06;;;;;;;;;;;;;;;25.50;58.06;99877.38;5114033;28;19974;-60
2022/10/25 12:36:32;;;;;;;;;;;;;;;25.51;57.73;99880.91;5114223;28;19970;-60
2022/10/25 12:39:01;;;;;;;;;;;;;;;25.40;56.16;99867.88;5113764;28;19919;-62
2022/10/25 12:41:29;;;;;;;;;;;;;;;25.21;56.94;99879.00;5114382;28;20030;-59
2022/10/25 12:44:14;;;;;;;;;;;;;;;24.94;58.24;99881.22;5113994;28;19963;-61
2022/10/25 12:46:50;;;;;;;;;;;;;;;24.59;56.29;99880.72;5114061;28;19973;-59
2022/10/25 12:49:22;;;;;;;;;;;;;;;24.23;56.50;99878.53;5113624;28;20254;-59
2022/10/25 12:51:55;;;;;;;;;;;;;;;23.86;55.57;99875.44;5113729;28;20267;-63
2022/10/25 12:54:21;;;;;;;;;;;;;;;23.51;55.75;99868.44;5113604;28;19971;-61
2022/10/25 12:56:55;;;;;;;;;;;;;;;23.20;56.52;99876.31;5113582;28;20068;-60
2022/10/25 12:59:22;;;;;;;;;;;;;;;22.90;59.16;99871.41;5113492;28;19930;-58